sensor_id;sensor_type;location;lat;lon;timestamp;temperature;humidity
31675;DHT22;18276;45.520;11.018;2022-08-07T00:01:20;24.30;74.40
31675;DHT22;18276;45.520;11.018;2022-08-07T00:04:07;24.20;73.70
31675;DHT22;18276;45.520;11.018;2022-08-07T00:06:37;24.20;73.60
31675;DHT22;18276;45.520;11.018;2022-08-07T00:09:18;24.20;73.50
31675;DHT22;18276;45.520;11.018;2022-08-07T00:11:48;24.20;73.20
31675;DHT22;18276;45.520;11.018;2022-08-07T00:14:22;24.20;72.20
31675;DHT22;18276;45.520;11.018;2022-08-07T00:16:51;24.20;71.70
31675;DHT22;18276;45.520;11.018;2022-08-07T00:19:18;24.20;71.50
31675;DHT22;18276;45.520;11.018;2022-08-07T00:21:47;24.20;71.30
31675;DHT22;18276;45.520;11.018;2022-08-07T00:24:27;24.20;70.80
31675;DHT22;18276;45.520;11.018;2022-08-07T00:26:57;24.20;70.30
31675;DHT22;18276;45.520;11.018;2022-08-07T00:29:34;24.30;69.70
31675;DHT22;18276;45.520;11.018;2022-08-07T00:32:04;24.30;68.90
31675;DHT22;18276;45.520;11.018;2022-08-07T00:34:32;24.40;67.70
31675;DHT22;18276;45.520;11.018;2022-08-07T00:37:02;24.40;65.70
31675;DHT22;18276;45.520;11.018;2022-08-07T00:39:35;24.50;67.10
31675;DHT22;18276;45.520;11.018;2022-08-07T00:42:10;24.40;68.80
31675;DHT22;18276;45.520;11.018;2022-08-07T00:44:38;24.30;71.00
31675;DHT22;18276;45.520;11.018;2022-08-07T00:47:07;24.10;72.60
31675;DHT22;18276;45.520;11.018;2022-08-07T00:49:54;23.90;75.30
31675;DHT22;18276;45.520;11.018;2022-08-07T00:52:42;23.20;80.00
31675;DHT22;18276;45.520;11.018;2022-08-07T00:55:13;22.30;84.20
31675;DHT22;18276;45.520;11.018;2022-08-07T00:58:01;21.80;89.50
31675;DHT22;18276;45.520;11.018;2022-08-07T01:00:30;21.50;92.10
31675;DHT22;18276;45.520;11.018;2022-08-07T01:02:58;21.30;93.90
31675;DHT22;18276;45.520;11.018;2022-08-07T01:05:27;21.20;95.70
31675;DHT22;18276;45.520;11.018;2022-08-07T01:07:55;21.30;97.60
31675;DHT22;18276;45.520;11.018;2022-08-07T01:10:22;21.30;99.00
31675;DHT22;18276;45.520;11.018;2022-08-07T01:12:50;21.30;99.90
31675;DHT22;18276;45.520;11.018;2022-08-07T01:15:23;21.30;99.90
31675;DHT22;18276;45.520;11.018;2022-08-07T01:18:11;21.40;99.90
31675;DHT22;18276;45.520;11.018;2022-08-07T01:20:49;21.50;99.90
31675;DHT22;18276;45.520;11.018;2022-08-07T01:23:26;21.60;99.90
31675;DHT22;18276;45.520;11.018;2022-08-07T01:26:10;21.70;99.90
31675;DHT22;18276;45.520;11.018;2022-08-07T01:28:44;21.70;99.90
31675;DHT22;18276;45.520;11.018;2022-08-07T01:31:20;21.80;99.90
31675;DHT22;18276;45.520;11.018;2022-08-07T01:34:07;21.90;99.90
31675;DHT22;18276;45.520;11.018;2022-08-07T01:36:39;21.90;99.90
31675;DHT22;18276;45.520;11.018;2022-08-07T01:39:13;22.00;99.90
31675;DHT22;18276;45.520;11.018;2022-08-07T01:41:45;22.00;99.90
31675;DHT22;18276;45.520;11.018;2022-08-07T01:44:34;22.10;99.90
31675;DHT22;18276;45.520;11.018;2022-08-07T01:47:01;22.10;99.90
31675;DHT22;18276;45.520;11.018;2022-08-07T01:49:49;22.00;99.90
31675;DHT22;18276;45.520;11.018;2022-08-07T01:52:23;22.10;99.90
31675;DHT22;18276;45.520;11.018;2022-08-07T01:54:54;22.10;99.90
31675;DHT22;18276;45.520;11.018;2022-08-07T01:57:29;22.10;99.90
31675;DHT22;18276;45.520;11.018;2022-08-07T02:00:18;22.20;99.90
31675;DHT22;18276;45.520;11.018;2022-08-07T02:03:02;22.20;99.90
31675;DHT22;18276;45.520;11.018;2022-08-07T02:08:35;22.20;99.50
31675;DHT22;18276;45.520;11.018;2022-08-07T02:11:10;22.10;99.60
31675;DHT22;18276;45.520;11.018;2022-08-07T02:13:58;22.10;99.90
31675;DHT22;18276;45.520;11.018;2022-08-07T02:16:30;22.00;99.80
31675;DHT22;18276;45.520;11.018;2022-08-07T02:19:03;22.00;99.80
31675;DHT22;18276;45.520;11.018;2022-08-07T02:21:54;22.00;99.70
31675;DHT22;18276;45.520;11.018;2022-08-07T02:24:26;22.00;99.30
31675;DHT22;18276;45.520;11.018;2022-08-07T02:26:57;22.00;99.00
31675;DHT22;18276;45.520;11.018;2022-08-07T02:29:27;22.00;98.60
31675;DHT22;18276;45.520;11.018;2022-08-07T02:31:58;22.00;98.60
31675;DHT22;18276;45.520;11.018;2022-08-07T02:34:27;22.00;98.30
31675;DHT22;18276;45.520;11.018;2022-08-07T02:37:00;22.00;97.90
31675;DHT22;18276;45.520;11.018;2022-08-07T02:39:38;22.00;97.70
31675;DHT22;18276;45.520;11.018;2022-08-07T02:42:28;22.00;97.20
31675;DHT22;18276;45.520;11.018;2022-08-07T02:44:59;22.00;96.70
31675;DHT22;18276;45.520;11.018;2022-08-07T02:47:47;22.10;96.30
31675;DHT22;18276;45.520;11.018;2022-08-07T02:50:17;22.10;96.00
31675;DHT22;18276;45.520;11.018;2022-08-07T02:53:07;22.10;95.80
31675;DHT22;18276;45.520;11.018;2022-08-07T02:55:41;22.20;95.40
31675;DHT22;18276;45.520;11.018;2022-08-07T02:58:30;22.20;95.30
31675;DHT22;18276;45.520;11.018;2022-08-07T03:01:01;22.20;95.20
31675;DHT22;18276;45.520;11.018;2022-08-07T03:03:31;22.30;95.10
31675;DHT22;18276;45.520;11.018;2022-08-07T03:06:19;22.20;94.90
31675;DHT22;18276;45.520;11.018;2022-08-07T03:09:02;22.20;94.90
31675;DHT22;18276;45.520;11.018;2022-08-07T03:11:30;22.20;95.10
31675;DHT22;18276;45.520;11.018;2022-08-07T03:14:07;22.10;95.00
31675;DHT22;18276;45.520;11.018;2022-08-07T03:16:35;22.10;95.20
31675;DHT22;18276;45.520;11.018;2022-08-07T03:19:05;22.10;95.30
31675;DHT22;18276;45.520;11.018;2022-08-07T03:21:34;22.00;95.40
31675;DHT22;18276;45.520;11.018;2022-08-07T03:24:03;22.00;95.00
31675;DHT22;18276;45.520;11.018;2022-08-07T03:26:52;22.00;94.70
31675;DHT22;18276;45.520;11.018;2022-08-07T03:29:33;22.00;94.30
31675;DHT22;18276;45.520;11.018;2022-08-07T03:32:07;22.10;93.50
31675;DHT22;18276;45.520;11.018;2022-08-07T03:34:42;22.10;93.00
31675;DHT22;18276;45.520;11.018;2022-08-07T03:37:30;22.10;92.40
31675;DHT22;18276;45.520;11.018;2022-08-07T03:40:04;22.20;91.80
31675;DHT22;18276;45.520;11.018;2022-08-07T03:42:42;22.20;91.20
31675;DHT22;18276;45.520;11.018;2022-08-07T03:45:11;22.20;90.70
31675;DHT22;18276;45.520;11.018;2022-08-07T03:48:05;22.30;90.50
31675;DHT22;18276;45.520;11.018;2022-08-07T03:50:37;22.30;90.70
31675;DHT22;18276;45.520;11.018;2022-08-07T03:53:09;22.20;91.10
31675;DHT22;18276;45.520;11.018;2022-08-07T03:55:39;22.20;91.00
31675;DHT22;18276;45.520;11.018;2022-08-07T03:58:25;22.20;90.70
31675;DHT22;18276;45.520;11.018;2022-08-07T04:01:12;22.30;90.40
31675;DHT22;18276;45.520;11.018;2022-08-07T04:03:43;22.40;90.00
31675;DHT22;18276;45.520;11.018;2022-08-07T04:06:21;22.40;90.10
31675;DHT22;18276;45.520;11.018;2022-08-07T04:09:11;22.40;90.20
31675;DHT22;18276;45.520;11.018;2022-08-07T04:11:46;22.40;90.50
31675;DHT22;18276;45.520;11.018;2022-08-07T04:14:38;22.40;90.90
31675;DHT22;18276;45.520;11.018;2022-08-07T04:17:13;22.30;91.10
31675;DHT22;18276;45.520;11.018;2022-08-07T04:20:01;22.30;91.20
31675;DHT22;18276;45.520;11.018;2022-08-07T04:22:34;22.30;91.20
31675;DHT22;18276;45.520;11.018;2022-08-07T04:25:04;22.30;91.20
31675;DHT22;18276;45.520;11.018;2022-08-07T04:27:40;22.20;91.40
31675;DHT22;18276;45.520;11.018;2022-08-07T04:30:13;22.20;91.60
31675;DHT22;18276;45.520;11.018;2022-08-07T04:33:07;22.20;91.80
31675;DHT22;18276;45.520;11.018;2022-08-07T04:35:37;22.20;91.90
31675;DHT22;18276;45.520;11.018;2022-08-07T04:38:09;22.20;91.80
31675;DHT22;18276;45.520;11.018;2022-08-07T04:40:42;22.20;91.50
31675;DHT22;18276;45.520;11.018;2022-08-07T04:43:32;22.20;91.40
31675;DHT22;18276;45.520;11.018;2022-08-07T04:53:10;22.30;91.00
31675;DHT22;18276;45.520;11.018;2022-08-07T04:55:58;22.20;91.70
31675;DHT22;18276;45.520;11.018;2022-08-07T04:59:14;22.20;92.30
31675;DHT22;18276;45.520;11.018;2022-08-07T05:02:13;22.20;93.10
31675;DHT22;18276;45.520;11.018;2022-08-07T05:05:11;22.00;94.00
31675;DHT22;18276;45.520;11.018;2022-08-07T05:08:05;21.90;94.90
31675;DHT22;18276;45.520;11.018;2022-08-07T05:10:42;21.80;95.20
31675;DHT22;18276;45.520;11.018;2022-08-07T05:13:22;21.80;95.60
31675;DHT22;18276;45.520;11.018;2022-08-07T05:16:14;21.80;95.90
31675;DHT22;18276;45.520;11.018;2022-08-07T05:19:13;21.80;95.90
31675;DHT22;18276;45.520;11.018;2022-08-07T05:21:47;21.80;94.70
31675;DHT22;18276;45.520;11.018;2022-08-07T05:24:30;21.80;93.70
31675;DHT22;18276;45.520;11.018;2022-08-07T05:27:09;21.90;94.00
31675;DHT22;18276;45.520;11.018;2022-08-07T05:29:59;21.90;94.40
31675;DHT22;18276;45.520;11.018;2022-08-07T05:32:28;21.90;94.60
31675;DHT22;18276;45.520;11.018;2022-08-07T05:34:58;21.90;94.80
31675;DHT22;18276;45.520;11.018;2022-08-07T05:37:30;21.90;95.30
31675;DHT22;18276;45.520;11.018;2022-08-07T05:40:08;21.90;95.50
31675;DHT22;18276;45.520;11.018;2022-08-07T05:42:46;21.90;95.50
31675;DHT22;18276;45.520;11.018;2022-08-07T05:45:23;21.90;95.70
31675;DHT22;18276;45.520;11.018;2022-08-07T05:48:13;22.00;95.70
31675;DHT22;18276;45.520;11.018;2022-08-07T05:50:44;21.90;95.80
31675;DHT22;18276;45.520;11.018;2022-08-07T05:53:15;21.90;95.80
31675;DHT22;18276;45.520;11.018;2022-08-07T05:56:03;21.80;96.40
31675;DHT22;18276;45.520;11.018;2022-08-07T05:58:40;21.80;96.80
31675;DHT22;18276;45.520;11.018;2022-08-07T06:01:19;21.80;97.20
31675;DHT22;18276;45.520;11.018;2022-08-07T06:03:52;21.80;97.80
31675;DHT22;18276;45.520;11.018;2022-08-07T06:06:28;21.80;98.30
31675;DHT22;18276;45.520;11.018;2022-08-07T06:09:02;21.80;98.00
31675;DHT22;18276;45.520;11.018;2022-08-07T06:11:34;21.80;97.80
31675;DHT22;18276;45.520;11.018;2022-08-07T06:14:03;21.80;97.90
31675;DHT22;18276;45.520;11.018;2022-08-07T06:16:44;21.80;98.20
31675;DHT22;18276;45.520;11.018;2022-08-07T06:19:25;21.70;98.40
31675;DHT22;18276;45.520;11.018;2022-08-07T06:22:15;21.70;98.70
31675;DHT22;18276;45.520;11.018;2022-08-07T06:24:57;21.70;99.20
31675;DHT22;18276;45.520;11.018;2022-08-07T06:27:27;21.70;99.50
31675;DHT22;18276;45.520;11.018;2022-08-07T06:30:15;21.60;99.50
31675;DHT22;18276;45.520;11.018;2022-08-07T06:32:58;21.60;99.60
31675;DHT22;18276;45.520;11.018;2022-08-07T06:35:26;21.60;99.90
31675;DHT22;18276;45.520;11.018;2022-08-07T06:38:06;21.60;99.90
31675;DHT22;18276;45.520;11.018;2022-08-07T06:40:49;21.60;99.90
31675;DHT22;18276;45.520;11.018;2022-08-07T06:43:22;21.60;99.90
31675;DHT22;18276;45.520;11.018;2022-08-07T06:46:03;21.50;99.90
31675;DHT22;18276;45.520;11.018;2022-08-07T06:48:38;21.50;99.90
31675;DHT22;18276;45.520;11.018;2022-08-07T06:51:19;21.50;99.90
31675;DHT22;18276;45.520;11.018;2022-08-07T06:54:03;21.50;99.90
31675;DHT22;18276;45.520;11.018;2022-08-07T06:56:50;21.60;99.90
31675;DHT22;18276;45.520;11.018;2022-08-07T06:59:31;21.60;99.90
31675;DHT22;18276;45.520;11.018;2022-08-07T07:02:22;21.60;99.90
31675;DHT22;18276;45.520;11.018;2022-08-07T07:05:11;21.60;99.90
31675;DHT22;18276;45.520;11.018;2022-08-07T07:07:59;21.60;99.90
31675;DHT22;18276;45.520;11.018;2022-08-07T07:10:34;21.70;99.90
31675;DHT22;18276;45.520;11.018;2022-08-07T07:13:17;21.70;99.90
31675;DHT22;18276;45.520;11.018;2022-08-07T07:16:16;21.80;99.90
31675;DHT22;18276;45.520;11.018;2022-08-07T07:18:50;22.00;99.90
31675;DHT22;18276;45.520;11.018;2022-08-07T07:21:28;22.00;99.90
31675;DHT22;18276;45.520;11.018;2022-08-07T07:24:15;22.20;99.80
31675;DHT22;18276;45.520;11.018;2022-08-07T07:26:45;22.20;99.70
31675;DHT22;18276;45.520;11.018;2022-08-07T07:29:21;22.30;99.40
31675;DHT22;18276;45.520;11.018;2022-08-07T07:32:12;22.40;99.10
31675;DHT22;18276;45.520;11.018;2022-08-07T07:34:44;22.50;98.70
31675;DHT22;18276;45.520;11.018;2022-08-07T07:37:15;22.60;98.40
31675;DHT22;18276;45.520;11.018;2022-08-07T07:40:05;22.70;98.10
31675;DHT22;18276;45.520;11.018;2022-08-07T07:42:42;22.80;97.80
31675;DHT22;18276;45.520;11.018;2022-08-07T07:45:19;22.90;97.50
31675;DHT22;18276;45.520;11.018;2022-08-07T07:48:10;23.00;97.00
31675;DHT22;18276;45.520;11.018;2022-08-07T07:50:59;23.10;96.50
31675;DHT22;18276;45.520;11.018;2022-08-07T07:53:28;23.20;96.00
31675;DHT22;18276;45.520;11.018;2022-08-07T07:56:01;23.30;95.50
31675;DHT22;18276;45.520;11.018;2022-08-07T07:58:32;23.30;95.10
31675;DHT22;18276;45.520;11.018;2022-08-07T08:01:08;23.40;95.10
31675;DHT22;18276;45.520;11.018;2022-08-07T08:03:58;23.50;94.90
31675;DHT22;18276;45.520;11.018;2022-08-07T08:06:38;23.60;95.00
31675;DHT22;18276;45.520;11.018;2022-08-07T08:09:19;23.60;94.30
31675;DHT22;18276;45.520;11.018;2022-08-07T08:11:50;23.70;94.20
31675;DHT22;18276;45.520;11.018;2022-08-07T08:14:34;23.80;93.80
31675;DHT22;18276;45.520;11.018;2022-08-07T08:17:06;23.80;93.70
31675;DHT22;18276;45.520;11.018;2022-08-07T08:20:00;23.80;93.70
31675;DHT22;18276;45.520;11.018;2022-08-07T08:22:48;23.80;93.50
31675;DHT22;18276;45.520;11.018;2022-08-07T08:25:38;23.90;93.40
31675;DHT22;18276;45.520;11.018;2022-08-07T08:28:35;23.90;93.00
31675;DHT22;18276;45.520;11.018;2022-08-07T08:31:12;24.00;92.70
31675;DHT22;18276;45.520;11.018;2022-08-07T08:33:42;24.20;92.50
31675;DHT22;18276;45.520;11.018;2022-08-07T08:36:17;24.30;92.10
31675;DHT22;18276;45.520;11.018;2022-08-07T08:38:57;24.50;91.40
31675;DHT22;18276;45.520;11.018;2022-08-07T08:41:42;24.60;90.70
31675;DHT22;18276;45.520;11.018;2022-08-07T08:44:32;24.70;90.30
31675;DHT22;18276;45.520;11.018;2022-08-07T08:47:36;24.80;89.80
31675;DHT22;18276;45.520;11.018;2022-08-07T08:53:05;24.80;89.10
31675;DHT22;18276;45.520;11.018;2022-08-07T08:55:39;24.90;89.30
31675;DHT22;18276;45.520;11.018;2022-08-07T08:58:41;24.80;89.20
31675;DHT22;18276;45.520;11.018;2022-08-07T09:01:14;25.00;88.90
31675;DHT22;18276;45.520;11.018;2022-08-07T09:07:02;25.00;88.70
31675;DHT22;18276;45.520;11.018;2022-08-07T09:12:11;25.10;87.90
31675;DHT22;18276;45.520;11.018;2022-08-07T09:18:38;25.30;87.30
31675;DHT22;18276;45.520;11.018;2022-08-07T09:27:56;25.60;86.50
31675;DHT22;18276;45.520;11.018;2022-08-07T09:31:09;25.70;85.90
31675;DHT22;18276;45.520;11.018;2022-08-07T09:36:47;25.90;84.80
31675;DHT22;18276;45.520;11.018;2022-08-07T09:51:02;26.40;82.50
31675;DHT22;18276;45.520;11.018;2022-08-07T09:53:55;26.40;81.80
31675;DHT22;18276;45.520;11.018;2022-08-07T10:19:54;27.10;79.30
31675;DHT22;18276;45.520;11.018;2022-08-07T10:22:37;27.20;78.70
31675;DHT22;18276;45.520;11.018;2022-08-07T10:25:48;27.20;77.90
31675;DHT22;18276;45.520;11.018;2022-08-07T10:37:38;27.40;75.80
31675;DHT22;18276;45.520;11.018;2022-08-07T10:40:47;27.40;74.20
31675;DHT22;18276;45.520;11.018;2022-08-07T10:43:41;27.60;73.70
31675;DHT22;18276;45.520;11.018;2022-08-07T10:46:18;27.90;72.70
31675;DHT22;18276;45.520;11.018;2022-08-07T10:49:13;28.30;70.90
31675;DHT22;18276;45.520;11.018;2022-08-07T10:51:55;28.70;69.80
31675;DHT22;18276;45.520;11.018;2022-08-07T10:54:45;29.20;69.70
31675;DHT22;18276;45.520;11.018;2022-08-07T10:57:51;29.70;65.50
31675;DHT22;18276;45.520;11.018;2022-08-07T11:00:26;30.20;64.70
31675;DHT22;18276;45.520;11.018;2022-08-07T11:03:16;30.60;61.60
31675;DHT22;18276;45.520;11.018;2022-08-07T11:06:00;30.90;59.40
31675;DHT22;18276;45.520;11.018;2022-08-07T11:08:45;31.00;57.60
31675;DHT22;18276;45.520;11.018;2022-08-07T11:11:30;31.00;57.00
31675;DHT22;18276;45.520;11.018;2022-08-07T11:17:18;31.20;56.30
31675;DHT22;18276;45.520;11.018;2022-08-07T11:20:16;31.00;55.70
31675;DHT22;18276;45.520;11.018;2022-08-07T11:28:42;30.80;56.40
31675;DHT22;18276;45.520;11.018;2022-08-07T11:31:33;30.80;56.50
31675;DHT22;18276;45.520;11.018;2022-08-07T11:34:04;30.90;56.70
31675;DHT22;18276;45.520;11.018;2022-08-07T11:46:18;31.60;54.40
31675;DHT22;18276;45.520;11.018;2022-08-07T11:51:59;33.00;52.10
31675;DHT22;18276;45.520;11.018;2022-08-07T12:09:36;33.40;47.90
31675;DHT22;18276;45.520;11.018;2022-08-07T12:12:09;33.00;47.90
31675;DHT22;18276;45.520;11.018;2022-08-07T12:14:51;32.80;47.50
31675;DHT22;18276;45.520;11.018;2022-08-07T12:17:59;32.60;46.90
31675;DHT22;18276;45.520;11.018;2022-08-07T12:21:01;32.70;47.10
31675;DHT22;18276;45.520;11.018;2022-08-07T12:23:45;32.90;47.70
31675;DHT22;18276;45.520;11.018;2022-08-07T12:32:28;34.70;45.60
31675;DHT22;18276;45.520;11.018;2022-08-07T12:34:57;34.90;44.10
31675;DHT22;18276;45.520;11.018;2022-08-07T12:37:32;35.10;44.20
31675;DHT22;18276;45.520;11.018;2022-08-07T12:40:22;35.50;43.90
31675;DHT22;18276;45.520;11.018;2022-08-07T12:43:12;35.30;43.50
31675;DHT22;18276;45.520;11.018;2022-08-07T12:46:25;35.10;42.60
31675;DHT22;18276;45.520;11.018;2022-08-07T12:49:11;34.70;43.60
31675;DHT22;18276;45.520;11.018;2022-08-07T12:52:12;34.50;44.10
31675;DHT22;18276;45.520;11.018;2022-08-07T12:55:08;34.00;44.40
31675;DHT22;18276;45.520;11.018;2022-08-07T12:57:45;33.50;45.40
31675;DHT22;18276;45.520;11.018;2022-08-07T13:13:16;32.10;48.50
31675;DHT22;18276;45.520;11.018;2022-08-07T13:16:41;32.50;47.20
31675;DHT22;18276;45.520;11.018;2022-08-07T13:19:29;32.60;46.80
31675;DHT22;18276;45.520;11.018;2022-08-07T13:22:23;32.60;47.40
31675;DHT22;18276;45.520;11.018;2022-08-07T13:25:12;32.60;47.40
31675;DHT22;18276;45.520;11.018;2022-08-07T13:27:54;32.50;46.30
31675;DHT22;18276;45.520;11.018;2022-08-07T13:30:44;32.50;45.90
31675;DHT22;18276;45.520;11.018;2022-08-07T13:36:41;32.30;46.60
31675;DHT22;18276;45.520;11.018;2022-08-07T13:42:17;32.30;47.10
31675;DHT22;18276;45.520;11.018;2022-08-07T13:44:52;32.30;46.90
31675;DHT22;18276;45.520;11.018;2022-08-07T13:47:41;32.20;46.80
31675;DHT22;18276;45.520;11.018;2022-08-07T13:50:29;32.00;46.60
31675;DHT22;18276;45.520;11.018;2022-08-07T13:53:18;32.10;45.70
31675;DHT22;18276;45.520;11.018;2022-08-07T13:55:50;32.20;46.00
31675;DHT22;18276;45.520;11.018;2022-08-07T13:58:24;32.10;46.30
31675;DHT22;18276;45.520;11.018;2022-08-07T14:01:23;32.20;46.00
31675;DHT22;18276;45.520;11.018;2022-08-07T14:03:54;32.00;45.50
31675;DHT22;18276;45.520;11.018;2022-08-07T14:06:35;31.90;43.30
31675;DHT22;18276;45.520;11.018;2022-08-07T14:09:06;31.80;43.10
31675;DHT22;18276;45.520;11.018;2022-08-07T14:11:45;31.70;43.70
31675;DHT22;18276;45.520;11.018;2022-08-07T14:14:41;31.60;47.50
31675;DHT22;18276;45.520;11.018;2022-08-07T14:17:11;31.50;48.80
31675;DHT22;18276;45.520;11.018;2022-08-07T14:23:23;31.20;49.50
31675;DHT22;18276;45.520;11.018;2022-08-07T14:26:13;31.30;49.60
31675;DHT22;18276;45.520;11.018;2022-08-07T14:29:00;31.30;48.50
31675;DHT22;18276;45.520;11.018;2022-08-07T14:31:49;31.30;48.30
31675;DHT22;18276;45.520;11.018;2022-08-07T14:34:27;31.20;47.90
31675;DHT22;18276;45.520;11.018;2022-08-07T14:37:01;31.30;47.50
31675;DHT22;18276;45.520;11.018;2022-08-07T14:39:30;31.40;47.20
31675;DHT22;18276;45.520;11.018;2022-08-07T14:42:25;31.40;46.00
31675;DHT22;18276;45.520;11.018;2022-08-07T14:44:58;31.30;46.50
31675;DHT22;18276;45.520;11.018;2022-08-07T14:47:48;31.40;46.90
31675;DHT22;18276;45.520;11.018;2022-08-07T14:50:42;31.30;48.00
31675;DHT22;18276;45.520;11.018;2022-08-07T14:53:11;31.40;48.00
31675;DHT22;18276;45.520;11.018;2022-08-07T14:56:03;31.40;47.90
31675;DHT22;18276;45.520;11.018;2022-08-07T14:58:36;31.40;47.50
31675;DHT22;18276;45.520;11.018;2022-08-07T15:01:09;31.50;46.90
31675;DHT22;18276;45.520;11.018;2022-08-07T15:03:49;31.50;47.50
31675;DHT22;18276;45.520;11.018;2022-08-07T15:06:38;31.50;47.80
31675;DHT22;18276;45.520;11.018;2022-08-07T15:09:15;31.50;46.70
31675;DHT22;18276;45.520;11.018;2022-08-07T15:12:10;31.60;46.30
31675;DHT22;18276;45.520;11.018;2022-08-07T15:15:06;31.60;46.10
31675;DHT22;18276;45.520;11.018;2022-08-07T15:17:57;31.60;46.30
31675;DHT22;18276;45.520;11.018;2022-08-07T15:20:31;31.60;46.20
31675;DHT22;18276;45.520;11.018;2022-08-07T15:23:25;31.60;46.70
31675;DHT22;18276;45.520;11.018;2022-08-07T15:26:13;31.50;47.10
31675;DHT22;18276;45.520;11.018;2022-08-07T15:28:47;31.40;46.90
31675;DHT22;18276;45.520;11.018;2022-08-07T15:31:40;31.30;47.20
31675;DHT22;18276;45.520;11.018;2022-08-07T15:34:40;31.10;47.50
31675;DHT22;18276;45.520;11.018;2022-08-07T15:37:33;31.00;47.60
31675;DHT22;18276;45.520;11.018;2022-08-07T15:40:22;31.00;48.10
31675;DHT22;18276;45.520;11.018;2022-08-07T15:45:57;31.00;46.90
31675;DHT22;18276;45.520;11.018;2022-08-07T15:48:47;30.90;46.80
31675;DHT22;18276;45.520;11.018;2022-08-07T15:51:35;30.80;47.00
31675;DHT22;18276;45.520;11.018;2022-08-07T15:54:25;30.80;47.00
31675;DHT22;18276;45.520;11.018;2022-08-07T15:57:01;30.80;47.00
31675;DHT22;18276;45.520;11.018;2022-08-07T15:59:31;30.70;47.60
31675;DHT22;18276;45.520;11.018;2022-08-07T16:02:24;30.70;47.90
31675;DHT22;18276;45.520;11.018;2022-08-07T16:05:08;30.60;48.00
31675;DHT22;18276;45.520;11.018;2022-08-07T16:07:47;30.60;48.00
31675;DHT22;18276;45.520;11.018;2022-08-07T16:10:35;30.40;48.40
31675;DHT22;18276;45.520;11.018;2022-08-07T16:16:09;30.30;49.00
31675;DHT22;18276;45.520;11.018;2022-08-07T16:19:31;30.30;49.10
31675;DHT22;18276;45.520;11.018;2022-08-07T16:28:48;30.00;50.30
31675;DHT22;18276;45.520;11.018;2022-08-07T16:32:00;29.90;50.70
31675;DHT22;18276;45.520;11.018;2022-08-07T16:34:56;29.70;50.80
31675;DHT22;18276;45.520;11.018;2022-08-07T16:41:09;29.20;52.20
31675;DHT22;18276;45.520;11.018;2022-08-07T16:50:15;29.00;53.30
31675;DHT22;18276;45.520;11.018;2022-08-07T16:56:10;29.00;53.40
31675;DHT22;18276;45.520;11.018;2022-08-07T17:04:32;29.20;53.70
31675;DHT22;18276;45.520;11.018;2022-08-07T17:07:31;29.10;53.90
31675;DHT22;18276;45.520;11.018;2022-08-07T17:16:32;28.70;54.70
31675;DHT22;18276;45.520;11.018;2022-08-07T17:22:47;28.60;56.00
31675;DHT22;18276;45.520;11.018;2022-08-07T17:25:29;28.50;56.10
31675;DHT22;18276;45.520;11.018;2022-08-07T17:28:42;28.40;56.10
31675;DHT22;18276;45.520;11.018;2022-08-07T17:31:50;28.40;57.00
31675;DHT22;18276;45.520;11.018;2022-08-07T17:34:37;28.40;57.80
31675;DHT22;18276;45.520;11.018;2022-08-07T17:37:34;28.30;58.10
31675;DHT22;18276;45.520;11.018;2022-08-07T17:43:58;28.20;58.70
31675;DHT22;18276;45.520;11.018;2022-08-07T17:46:46;28.10;59.30
31675;DHT22;18276;45.520;11.018;2022-08-07T17:49:24;28.00;59.90
31675;DHT22;18276;45.520;11.018;2022-08-07T17:54:45;27.80;60.90
31675;DHT22;18276;45.520;11.018;2022-08-07T17:57:32;27.70;61.30
31675;DHT22;18276;45.520;11.018;2022-08-07T18:00:26;27.60;61.90
31675;DHT22;18276;45.520;11.018;2022-08-07T18:03:32;27.50;62.00
31675;DHT22;18276;45.520;11.018;2022-08-07T18:06:32;27.40;62.20
31675;DHT22;18276;45.520;11.018;2022-08-07T18:09:04;27.30;63.10
31675;DHT22;18276;45.520;11.018;2022-08-07T18:11:50;27.10;63.40
31675;DHT22;18276;45.520;11.018;2022-08-07T18:14:53;27.10;64.00
31675;DHT22;18276;45.520;11.018;2022-08-07T18:17:46;26.90;64.30
31675;DHT22;18276;45.520;11.018;2022-08-07T18:20:47;26.80;64.90
31675;DHT22;18276;45.520;11.018;2022-08-07T18:27:28;26.60;66.30
31675;DHT22;18276;45.520;11.018;2022-08-07T18:30:09;26.40;66.80
31675;DHT22;18276;45.520;11.018;2022-08-07T18:38:35;26.20;68.10
31675;DHT22;18276;45.520;11.018;2022-08-07T18:47:04;26.00;69.00
31675;DHT22;18276;45.520;11.018;2022-08-07T18:55:33;25.70;69.90
31675;DHT22;18276;45.520;11.018;2022-08-07T18:58:24;25.70;70.50
31675;DHT22;18276;45.520;11.018;2022-08-07T19:01:00;25.60;70.80
31675;DHT22;18276;45.520;11.018;2022-08-07T19:06:35;25.50;71.80
31675;DHT22;18276;45.520;11.018;2022-08-07T19:09:20;25.50;72.10
31675;DHT22;18276;45.520;11.018;2022-08-07T19:12:20;25.40;72.50
31675;DHT22;18276;45.520;11.018;2022-08-07T19:23:44;25.20;73.80
31675;DHT22;18276;45.520;11.018;2022-08-07T19:26:31;25.10;73.80
31675;DHT22;18276;45.520;11.018;2022-08-07T19:29:22;25.10;74.00
31675;DHT22;18276;45.520;11.018;2022-08-07T19:32:11;25.10;74.10
31675;DHT22;18276;45.520;11.018;2022-08-07T19:35:02;25.10;74.40
31675;DHT22;18276;45.520;11.018;2022-08-07T19:37:33;25.10;74.60
31675;DHT22;18276;45.520;11.018;2022-08-07T19:40:22;25.00;74.70
31675;DHT22;18276;45.520;11.018;2022-08-07T19:43:10;25.00;74.90
31675;DHT22;18276;45.520;11.018;2022-08-07T19:45:48;25.00;75.00
31675;DHT22;18276;45.520;11.018;2022-08-07T19:48:56;24.90;75.20
31675;DHT22;18276;45.520;11.018;2022-08-07T19:51:25;24.90;75.50
31675;DHT22;18276;45.520;11.018;2022-08-07T19:54:17;24.80;75.30
31675;DHT22;18276;45.520;11.018;2022-08-07T19:57:05;24.80;76.20
31675;DHT22;18276;45.520;11.018;2022-08-07T19:59:58;24.80;75.30
31675;DHT22;18276;45.520;11.018;2022-08-07T20:03:03;24.80;75.40
31675;DHT22;18276;45.520;11.018;2022-08-07T20:05:54;24.80;75.50
31675;DHT22;18276;45.520;11.018;2022-08-07T20:08:34;24.80;75.60
31675;DHT22;18276;45.520;11.018;2022-08-07T20:11:10;24.80;75.90
31675;DHT22;18276;45.520;11.018;2022-08-07T20:13:52;24.80;76.20
31675;DHT22;18276;45.520;11.018;2022-08-07T20:16:27;24.70;76.40
31675;DHT22;18276;45.520;11.018;2022-08-07T20:19:03;24.70;76.60
31675;DHT22;18276;45.520;11.018;2022-08-07T20:21:35;24.60;76.50
31675;DHT22;18276;45.520;11.018;2022-08-07T20:24:25;24.60;76.50
31675;DHT22;18276;45.520;11.018;2022-08-07T20:26:58;24.60;76.50
31675;DHT22;18276;45.520;11.018;2022-08-07T20:29:31;24.50;76.70